Flight Track Log - Related Links

Times and Time Zones

All times are in EDT time to prevent confusion due to time zone crossing. See the SWA1496 flight status page for this flight to view local times or setup timezone preferences in your user account.

Time Position Orientation Groundspeed Altitude Reporting Facility
EDT Latitude Longitude Course Direction KTS MPH feet Rate Location/Type
Sat 07:50:21 PM 31.7692 -106.4086 205° Southwest 233 268 5,900  Level Albuquerque Center
Sat 07:51:31 PM 31.7325 -106.3356 121° Southeast 275 316 8,700 3,115 Climbing Albuquerque Center
Sat 07:52:32 PM 31.7356 -106.2103 88° East 332 382 12,700 3,590 Climbing Albuquerque Center
Sat 07:53:33 PM 31.7842 -106.1103 60° Northeast 350 403 16,000 2,459 Climbing Albuquerque Center
Sat 07:54:34 PM 31.7856 -105.9761 89° East 411 473 17,700 2,195 Climbing Albuquerque Center
Sat 07:55:36 PM 31.7831 -105.8242 91° East 459 528 20,500 2,390 Climbing Albuquerque Center
Sat 07:56:37 PM 31.7806 -105.6647 91° East 484 557 22,600 2,016 Climbing Albuquerque Center
Sat 07:57:38 PM 31.7711 -105.4956 94° East 512 589 24,600 1,951 Climbing Albuquerque Center
Sat 07:58:40 PM 31.7603 -105.3231 94° East 527 606 26,600 1,902 Climbing Albuquerque Center
Sat 07:59:41 PM 31.7511 -105.1467 93° East 536 617 28,500 1,180 Climbing Albuquerque Center
Sat 08:00:42 PM 31.7633 -104.9689 85° East 544 626 29,000 1,122 Climbing Albuquerque Center
Sat 08:01:44 PM 31.7850 -104.7922 82° East 545 627 30,800 1,902 Climbing Albuquerque Center
Sat 08:02:45 PM 31.8042 -104.6142 83° East 547 629 32,900 2,016 Climbing Albuquerque Center
Sat 08:03:46 PM 31.8281 -104.4036 82° East 542 624 34,900 1,561 Climbing Albuquerque Center
Sat 08:04:48 PM 31.8472 -104.2264 83° East 545 627 36,100 1,317 Climbing Albuquerque Center
Sat 08:05:49 PM 31.8658 -104.0458 83° East 552 635 37,600 1,268 Climbing Albuquerque Center
Sat 08:06:51 PM 31.8853 -103.8514 83° East 558 642 38,700 683 Climbing Albuquerque Center
Sat 08:07:52 PM 31.9047 -103.6739 83° East 553 636 39,000 148 Climbing Albuquerque Center
Sat 08:08:53 PM 31.9217 -103.4978 83° East 545 627 39,000  Level Albuquerque Center
Sat 08:09:55 PM 31.9400 -103.3219 83° East 545 627 39,000  Level Albuquerque Center
Sat 08:10:56 PM 31.9567 -103.1456 84° East 545 627 39,000  Level Albuquerque Center
Sat 08:11:58 PM 31.9747 -102.9564 84° East 547 629 39,000  Level Albuquerque Center
Sat 08:12:59 PM 31.9914 -102.7781 84° East 548 631 39,000  Level Albuquerque Center
Sat 08:14:03 PM 32.0083 -102.5944 84° East 551 634 39,000  Level Fort Worth Center
Sat 08:15:03 PM 32.0258 -102.4167 83° East 551 634 39,000  Level Fort Worth Center
Sat 08:16:03 PM 32.0433 -102.2389 83° East 551 634 39,000  Level Fort Worth Center
Sat 08:17:03 PM 32.0583 -102.0656 84° East 545 627 39,000 -500 Level Fort Worth Center
Sat 08:18:03 PM 32.0750 -101.8900 84° East 539 620 38,000 -950 Descending Fort Worth Center
Sat 08:19:03 PM 32.0897 -101.7117 84° East 539 620 37,100 -500 Descending Fort Worth Center
Sat 08:20:03 PM 32.1061 -101.5311 84° East 539 620 37,000 -50 Descending Fort Worth Center
Sat 08:21:03 PM 32.1203 -101.3503 85° East 544 626 37,000  Level Fort Worth Center
Sat 08:22:03 PM 32.1361 -101.1694 84° East 550 633 37,000  Level Fort Worth Center
Sat 08:23:03 PM 32.1478 -100.9908 86° East 550 633 37,000  Level Fort Worth Center
Sat 08:24:03 PM 32.1589 -100.8144 86° East 545 627 37,000  Level Fort Worth Center
Sat 08:25:03 PM 32.1739 -100.6358 84° East 545 627 37,000  Level Fort Worth Center
Sat 08:26:03 PM 32.1869 -100.4572 85° East 545 627 37,000  Level Fort Worth Center
Sat 08:27:03 PM 32.2017 -100.2736 85° East 545 627 37,000  Level Fort Worth Center
Sat 08:28:03 PM 32.2139 -100.0947 85° East 550 633 37,000  Level Fort Worth Center
Sat 08:29:03 PM 32.2239 -99.9183 86° East 550 633 37,000  Level Fort Worth Center
Sat 08:30:03 PM 32.2314 -99.7367 87° East 550 633 37,000 -250 Level Fort Worth Center
Sat 08:31:03 PM 32.2347 -99.5600 89° East 550 633 36,500 -750 Descending Fort Worth Center
Sat 08:32:03 PM 32.2586 -99.3764 81° East 555 639 35,500 -1,500 Descending Fort Worth Center
Sat 08:33:03 PM 32.2800 -99.1972 82° East 555 639 33,500 -2,100 Descending Fort Worth Center
Sat 08:34:03 PM 32.3011 -99.0208 82° East 550 633 31,300 -2,150 Descending Fort Worth Center
Sat 08:35:03 PM 32.3200 -98.8514 82° East 538 619 29,200 -2,150 Descending Fort Worth Center
Sat 08:36:03 PM 32.3403 -98.6944 81° East 497 572 27,000 -2,150 Descending Fort Worth Center
Sat 08:37:03 PM 32.3586 -98.5350 82° East 487 560 24,900 -2,100 Descending Fort Worth Center
Sat 08:38:03 PM 32.3744 -98.3703 83° East 467 537 22,800 -2,050 Descending Fort Worth Center
Sat 08:39:03 PM 32.3903 -98.2303 82° East 448 516 20,800 -1,850 Descending Fort Worth Center
Sat 08:40:03 PM 32.4056 -98.0925 82° East 430 495 19,100 -1,750 Descending Fort Worth Center
Sat 08:41:03 PM 32.4189 -97.9647 83° East 403 464 17,300 -1,800 Descending Fort Worth Center
Sat 08:42:03 PM 32.4339 -97.8392 82° East 388 447 15,500 -1,650 Descending Fort Worth Center
Sat 08:43:03 PM 32.4467 -97.7211 83° East 378 435 14,000 -1,550 Descending Fort Worth Center
Sat 08:44:03 PM 32.4575 -97.6031 84° East 364 419 12,400 -1,500 Descending Fort Worth Center
Sat 08:45:03 PM 32.4825 -97.4972 74° East 341 392 11,000 -700 Descending Fort Worth Center
Sat 08:46:03 PM 32.5431 -97.4183 48° Northeast 314 361 11,000  Level Fort Worth Center
Sat 08:47:03 PM 32.6058 -97.3419 46° Northeast 314 361 11,000  Level Fort Worth Center
Sat 08:48:03 PM 32.6683 -97.2653 46° Northeast 314 361 11,000  Level Fort Worth Center
Sat 08:49:03 PM 32.7308 -97.1936 44° Northeast 313 360 11,000  Level Fort Worth Center
Sat 08:50:03 PM 32.7978 -97.1761 12° North 258 297 11,000 -750 Level Fort Worth Center
Sat 08:51:03 PM 32.8667 -97.1783 358° North 238 274 9,500 -1,700 Descending Fort Worth Center
Sat 08:52:03 PM 32.9081 -97.1189 50° Northeast 218 251 7,600 -1,750 Descending Fort Worth Center
Sat 08:53:03 PM 32.9289 -97.0472 71° East 218 251 6,000 -1,550 Descending Fort Worth Center
Sat 08:54:03 PM 32.9453 -96.9900 71° East 198 228 4,500 -1,300 Descending Fort Worth Center
Sat 08:55:03 PM 32.9369 -96.9481 103° East 166 191 3,400 -1,237 Descending Fort Worth Center
Sat 08:56:14 PM 32.9000 -96.9167 144° Southeast 130 150 1,800 -1,352 Descending Dallas / Fort Worth TRACON
Sat 08:58:00 PM 32.8471 -96.8518 107° East  Level Estimated
Sat 09:05:00 PM 32.8471 -96.8518 107° East  Level Estimated
Sat 09:06:00 PM 32.8471 -96.8518 107° East  Level Estimated

Login

Don't have an account? Register now (free) for customized features, flight alerts, and more!